createdAt,value
2022-09-15T00:01:20.184Z,48.10
2022-09-15T00:03:47.932Z,42.33
2022-09-15T00:06:15.496Z,41.00
2022-09-15T00:08:42.909Z,39.67
2022-09-15T00:11:12.773Z,36.45
2022-09-15T00:13:40.575Z,37.80
2022-09-15T00:16:08.894Z,42.35
2022-09-15T00:18:36.572Z,49.08
2022-09-15T00:21:07.996Z,49.53
2022-09-15T00:23:35.461Z,47.40
2022-09-15T00:26:05.969Z,45.63
2022-09-15T00:28:33.116Z,49.75
2022-09-15T00:31:00.359Z,56.65
2022-09-15T00:33:27.642Z,41.38
2022-09-15T00:35:54.752Z,36.53
2022-09-15T00:38:22.136Z,39.03
2022-09-15T00:40:54.197Z,40.90
2022-09-15T00:43:41.199Z,39.05
2022-09-15T00:46:08.858Z,30.90
2022-09-15T00:48:38.066Z,29.00
2022-09-15T00:51:06.391Z,32.25
2022-09-15T00:53:34.086Z,55.20
2022-09-15T00:56:02.581Z,63.05
2022-09-15T00:58:32.988Z,68.93
2022-09-15T01:01:01.378Z,71.05
2022-09-15T01:03:30.674Z,65.22
2022-09-15T01:06:20.195Z,62.10
2022-09-15T01:09:07.776Z,51.10
2022-09-15T01:11:35.228Z,44.40
2022-09-15T01:14:02.506Z,42.85
2022-09-15T01:16:32.427Z,33.17
2022-09-15T01:19:26.454Z,36.13
2022-09-15T01:22:12.555Z,29.25
2022-09-15T01:24:58.289Z,36.75
2022-09-15T01:27:57.715Z,31.85
2022-09-15T01:30:25.434Z,27.88
2022-09-15T01:33:04.415Z,30.98
2022-09-15T01:35:35.818Z,23.50
2022-09-15T01:38:21.814Z,26.05
2022-09-15T01:40:54.332Z,33.22
2022-09-15T01:43:23.573Z,27.30
2022-09-15T01:45:51.595Z,24.60
2022-09-15T01:48:21.181Z,28.60
2022-09-15T01:50:56.200Z,28.25
2022-09-15T01:53:23.931Z,27.90
2022-09-15T01:56:08.147Z,25.30
2022-09-15T01:58:37.267Z,29.48
2022-09-15T02:01:10.419Z,35.00
2022-09-15T02:03:52.357Z,36.38
2022-09-15T02:06:24.726Z,31.45
2022-09-15T02:08:58.797Z,32.38
2022-09-15T02:11:28.273Z,36.42
2022-09-15T02:14:03.655Z,35.58
2022-09-15T02:16:34.161Z,35.00
2022-09-15T02:19:11.436Z,32.97
2022-09-15T02:21:57.411Z,36.17
2022-09-15T02:24:31.266Z,32.33
2022-09-15T02:26:59.771Z,40.67
2022-09-15T02:29:27.842Z,33.90
2022-09-15T02:31:56.626Z,32.10
2022-09-15T02:34:30.126Z,27.38
2022-09-15T02:36:57.732Z,25.17
2022-09-15T02:39:28.114Z,16.90
2022-09-15T02:41:55.663Z,18.50
2022-09-15T02:44:23.626Z,16.83
2022-09-15T02:46:54.047Z,12.45
2022-09-15T02:49:21.136Z,13.55
2022-09-15T02:51:48.536Z,15.18
2022-09-15T02:54:15.887Z,13.95
2022-09-15T02:56:43.710Z,17.90
2022-09-15T02:59:10.853Z,11.75
2022-09-15T03:01:39.189Z,13.80
2022-09-15T03:04:06.634Z,10.43
2022-09-15T03:06:36.704Z,15.15
2022-09-15T03:09:05.516Z,7.13
2022-09-15T03:11:33.337Z,6.20
2022-09-15T03:14:02.077Z,8.55
2022-09-15T03:16:30.298Z,5.05
2022-09-15T03:18:59.512Z,5.30
2022-09-15T03:21:27.590Z,7.47
2022-09-15T03:23:55.211Z,4.43
2022-09-15T03:26:22.304Z,5.45
2022-09-15T03:28:49.439Z,3.70
2022-09-15T03:31:16.726Z,2.58
2022-09-15T03:33:43.906Z,4.30
2022-09-15T03:36:10.901Z,2.67
2022-09-15T03:38:40.784Z,8.38
2022-09-15T03:41:10.231Z,6.05
2022-09-15T03:43:38.059Z,2.97
2022-09-15T03:46:06.099Z,2.90
2022-09-15T03:48:34.885Z,1.90
2022-09-15T03:51:02.503Z,2.03
2022-09-15T03:53:31.416Z,4.07
2022-09-15T03:56:06.957Z,3.45
2022-09-15T04:01:01.215Z,5.65
2022-09-15T04:03:29.324Z,2.88
2022-09-15T04:05:56.876Z,2.08
2022-09-15T04:08:24.197Z,1.92
2022-09-15T04:10:51.513Z,2.70
2022-09-15T04:13:18.817Z,5.70
2022-09-15T04:15:45.806Z,4.22
2022-09-15T04:18:13.060Z,5.90
2022-09-15T04:20:40.576Z,3.03
2022-09-15T04:23:07.637Z,3.08
2022-09-15T04:25:34.760Z,9.48
2022-09-15T04:28:04.608Z,2.90
2022-09-15T04:30:31.682Z,2.55
2022-09-15T04:32:58.736Z,4.75
2022-09-15T04:35:26.113Z,4.45
2022-09-15T04:37:54.756Z,3.53
2022-09-15T04:40:21.977Z,3.30
2022-09-15T04:42:49.275Z,4.43
2022-09-15T04:45:16.474Z,3.70
2022-09-15T04:47:43.552Z,3.20
2022-09-15T04:50:10.867Z,3.05
2022-09-15T04:52:37.974Z,5.40
2022-09-15T04:55:05.334Z,6.65
2022-09-15T04:57:33.537Z,7.07
2022-09-15T05:00:00.586Z,2.95
2022-09-15T05:02:27.669Z,2.60
2022-09-15T05:04:55.216Z,2.22
2022-09-15T05:07:22.254Z,3.05
2022-09-15T05:09:49.617Z,4.20
2022-09-15T05:12:17.632Z,2.70
2022-09-15T05:14:44.755Z,5.35
2022-09-15T05:17:11.859Z,3.33
2022-09-15T05:19:39.206Z,8.27
2022-09-15T05:22:06.171Z,4.30
2022-09-15T05:24:34.776Z,10.05
2022-09-15T05:27:02.007Z,2.90
2022-09-15T05:29:29.057Z,3.75
2022-09-15T05:31:56.204Z,3.83
2022-09-15T05:34:23.523Z,4.93
2022-09-15T05:36:50.542Z,2.17
2022-09-15T05:39:17.616Z,4.25
2022-09-15T05:41:44.992Z,3.50
2022-09-15T05:44:12.027Z,4.13
2022-09-15T05:46:39.104Z,4.72
2022-09-15T05:49:08.866Z,3.20
2022-09-15T05:51:36.461Z,7.47
2022-09-15T05:54:03.676Z,5.70
2022-09-15T05:56:31.432Z,3.90
2022-09-15T05:58:58.826Z,8.10
2022-09-15T06:01:27.604Z,6.88
2022-09-15T06:03:56.072Z,5.78
2022-09-15T06:06:24.071Z,2.85
2022-09-15T06:08:57.491Z,4.63
2022-09-15T06:11:27.786Z,5.22
2022-09-15T06:13:56.088Z,4.03
2022-09-15T06:16:24.357Z,2.95
2022-09-15T06:18:52.837Z,2.90
2022-09-15T06:21:21.476Z,2.28
2022-09-15T06:23:55.792Z,4.63
2022-09-15T06:26:23.395Z,3.30
2022-09-15T06:28:51.607Z,5.10
2022-09-15T06:31:19.109Z,9.93
2022-09-15T06:33:48.289Z,5.25
2022-09-15T06:36:16.111Z,3.80
2022-09-15T06:38:43.706Z,3.55
2022-09-15T06:41:12.310Z,3.50
2022-09-15T06:43:39.556Z,6.78
2022-09-15T06:46:08.021Z,4.10
2022-09-15T06:48:35.716Z,4.05
2022-09-15T06:51:03.321Z,5.10
2022-09-15T06:53:34.308Z,7.50
2022-09-15T06:56:03.021Z,2.22
2022-09-15T06:58:30.688Z,5.18
2022-09-15T07:01:05.071Z,6.65
2022-09-15T07:03:32.443Z,2.70
2022-09-15T07:05:59.556Z,1.90
2022-09-15T07:08:26.652Z,6.82
2022-09-15T07:10:55.111Z,2.22
2022-09-15T07:13:22.816Z,5.18
2022-09-15T07:15:53.920Z,3.83
2022-09-15T07:18:21.837Z,5.97
2022-09-15T07:20:49.177Z,4.38
2022-09-15T07:23:16.363Z,3.28
2022-09-15T07:25:45.371Z,5.10
2022-09-15T07:28:12.874Z,2.33
2022-09-15T07:30:40.199Z,2.20
2022-09-15T07:33:08.272Z,4.28
2022-09-15T07:35:35.464Z,9.48
2022-09-15T07:38:02.721Z,5.03
2022-09-15T07:40:30.453Z,3.90
2022-09-15T07:42:57.612Z,3.20
2022-09-15T07:45:24.711Z,2.35
2022-09-15T07:47:52.176Z,6.28
2022-09-15T07:50:19.192Z,1.90
2022-09-15T07:52:46.291Z,5.18
2022-09-15T07:55:13.543Z,2.72
2022-09-15T07:57:40.564Z,2.63
2022-09-15T08:00:08.038Z,1.63
2022-09-15T08:02:39.679Z,3.65
2022-09-15T08:05:07.075Z,2.22
2022-09-15T08:07:34.169Z,2.97
2022-09-15T08:10:01.437Z,2.38
2022-09-15T08:12:30.851Z,2.92
2022-09-15T08:14:57.986Z,5.55
2022-09-15T08:17:25.274Z,2.95
2022-09-15T08:19:52.392Z,4.47
2022-09-15T08:22:19.506Z,3.85
2022-09-15T08:24:47.226Z,2.22
2022-09-15T08:27:14.314Z,3.15
2022-09-15T08:29:41.795Z,4.38
2022-09-15T08:32:09.226Z,3.30
2022-09-15T08:34:36.356Z,3.35
2022-09-15T08:37:03.424Z,3.72
2022-09-15T08:39:31.142Z,3.35
2022-09-15T08:41:59.562Z,2.80
2022-09-15T08:44:29.751Z,1.42
2022-09-15T08:47:17.453Z,4.97
2022-09-15T08:49:52.798Z,1.30
2022-09-15T08:52:26.883Z,4.25
2022-09-15T08:54:56.200Z,1.75
2022-09-15T08:57:24.436Z,1.25
2022-09-15T08:59:52.221Z,1.65
2022-09-15T09:02:27.781Z,2.05
2022-09-15T09:05:10.604Z,2.83
2022-09-15T09:07:50.455Z,2.10
2022-09-15T09:10:24.241Z,6.05
2022-09-15T09:13:10.521Z,2.78
2022-09-15T09:15:46.145Z,4.00
2022-09-15T09:18:16.096Z,3.03
2022-09-15T09:20:52.653Z,3.15
2022-09-15T09:23:21.800Z,1.52
2022-09-15T09:25:49.957Z,1.20
2022-09-15T09:28:30.861Z,3.20
2022-09-15T09:31:01.591Z,2.55
2022-09-15T09:33:32.357Z,3.33
2022-09-15T09:36:02.584Z,3.85
2022-09-15T09:38:35.721Z,2.65
2022-09-15T09:41:06.345Z,3.05
2022-09-15T09:43:33.571Z,5.15
2022-09-15T09:46:02.049Z,3.75
2022-09-15T09:48:30.157Z,7.57
2022-09-15T09:50:57.287Z,7.57
2022-09-15T09:53:34.202Z,3.17
2022-09-15T09:56:20.136Z,2.30
2022-09-15T09:58:47.484Z,4.05
2022-09-15T10:01:16.471Z,7.93
2022-09-15T10:03:44.125Z,3.08
2022-09-15T10:06:19.516Z,3.15
2022-09-15T10:11:14.644Z,1.30
2022-09-15T10:13:50.439Z,1.00
2022-09-15T10:16:18.678Z,0.93
2022-09-15T10:18:45.981Z,3.25
2022-09-15T10:21:14.278Z,1.63
2022-09-15T10:23:42.562Z,1.00
2022-09-15T10:26:16.286Z,0.80
2022-09-15T10:28:44.614Z,0.70
2022-09-15T10:31:15.976Z,1.63
2022-09-15T10:33:45.310Z,1.40
2022-09-15T10:36:22.711Z,2.00
2022-09-15T10:38:55.437Z,2.45
2022-09-15T10:41:30.084Z,1.40
2022-09-15T10:44:15.682Z,1.75
2022-09-15T10:46:57.519Z,3.15
2022-09-15T10:49:43.483Z,2.78
2022-09-15T10:52:23.153Z,1.33
2022-09-15T10:55:02.502Z,1.20
2022-09-15T10:57:47.182Z,2.67
2022-09-15T11:00:21.221Z,6.68
2022-09-15T11:03:05.088Z,6.90
2022-09-15T11:05:46.611Z,0.77
2022-09-15T11:08:14.335Z,1.70
2022-09-15T11:10:50.656Z,4.50
2022-09-15T11:13:36.950Z,1.27
2022-09-15T11:16:22.888Z,1.27
2022-09-15T11:21:23.315Z,3.85
2022-09-15T11:24:08.805Z,2.30
2022-09-15T11:26:48.979Z,2.08
2022-09-15T11:29:16.204Z,2.53
2022-09-15T11:31:45.066Z,2.53
2022-09-15T11:34:30.837Z,2.38
2022-09-15T11:37:11.222Z,2.90
2022-09-15T11:39:56.870Z,5.05
2022-09-15T11:42:32.760Z,3.60
2022-09-15T11:47:27.081Z,2.85
2022-09-15T11:50:15.006Z,4.38
2022-09-15T11:52:53.514Z,2.63
2022-09-15T11:55:38.802Z,2.28
2022-09-15T11:58:09.513Z,2.08
2022-09-15T12:00:41.497Z,2.45
2022-09-15T12:03:14.957Z,2.88
2022-09-15T12:05:51.956Z,2.45
2022-09-15T12:08:25.886Z,3.40
2022-09-15T12:10:55.275Z,5.43
2022-09-15T12:13:24.807Z,4.13
2022-09-15T12:15:52.407Z,3.20
2022-09-15T12:18:37.785Z,3.83
2022-09-15T12:21:13.453Z,3.22
2022-09-15T12:23:42.294Z,4.18
2022-09-15T12:26:14.490Z,4.45
2022-09-15T12:28:47.601Z,7.03
2022-09-15T12:31:34.684Z,7.65
2022-09-15T12:34:23.400Z,7.65
2022-09-15T12:39:21.792Z,8.20
2022-09-15T12:41:53.215Z,7.40
2022-09-15T12:44:26.437Z,5.90
2022-09-15T12:46:54.856Z,5.82
2022-09-15T12:49:27.897Z,6.55
2022-09-15T12:51:55.069Z,10.00
2022-09-15T12:54:31.141Z,7.07
2022-09-15T12:56:59.297Z,4.82
2022-09-15T12:59:27.211Z,5.45
2022-09-15T13:01:55.445Z,6.68
2022-09-15T13:04:26.656Z,5.25
2022-09-15T13:07:12.877Z,4.38
2022-09-15T13:09:44.722Z,5.13
2022-09-15T13:12:17.450Z,9.50
2022-09-15T13:14:48.556Z,7.35
2022-09-15T13:17:24.132Z,6.45
2022-09-15T13:22:31.325Z,7.32
2022-09-15T13:25:11.308Z,7.80
2022-09-15T13:27:38.466Z,8.93
2022-09-15T13:30:11.712Z,6.88
2022-09-15T13:32:39.957Z,6.35
2022-09-15T13:35:21.169Z,5.30
2022-09-15T13:38:12.603Z,6.13
2022-09-15T13:40:58.406Z,6.75
2022-09-15T13:43:44.556Z,6.95
2022-09-15T13:46:14.980Z,3.58
2022-09-15T13:49:08.662Z,4.25
2022-09-15T13:51:37.501Z,7.25
2022-09-15T13:54:15.427Z,4.38
2022-09-15T13:56:45.631Z,8.00
2022-09-15T13:59:18.601Z,8.35
2022-09-15T14:01:47.765Z,7.13
2022-09-15T14:04:20.256Z,8.68
2022-09-15T14:06:49.527Z,13.18
2022-09-15T14:09:18.960Z,9.02
2022-09-15T14:11:50.438Z,11.82
2022-09-15T14:14:26.815Z,8.43
2022-09-15T14:16:54.606Z,28.48
2022-09-15T14:19:21.936Z,24.58
2022-09-15T14:21:49.292Z,20.23
2022-09-15T14:24:20.587Z,20.67
2022-09-15T14:26:48.559Z,11.35
2022-09-15T14:29:19.174Z,12.07
2022-09-15T14:31:47.822Z,21.13
2022-09-15T14:34:17.470Z,16.75
2022-09-15T14:36:44.823Z,17.25
2022-09-15T14:39:11.989Z,16.02
2022-09-15T14:41:40.386Z,14.07
2022-09-15T14:47:14.453Z,11.13
2022-09-15T14:49:41.674Z,9.80
2022-09-15T14:52:21.591Z,7.93
2022-09-15T14:54:49.978Z,11.77
2022-09-15T14:57:20.827Z,18.58
2022-09-15T14:59:51.216Z,29.08
2022-09-15T15:02:25.980Z,29.42
2022-09-15T15:04:57.779Z,25.25
2022-09-15T15:07:27.270Z,25.00
2022-09-15T15:09:59.277Z,27.35
2022-09-15T15:12:26.593Z,32.85
2022-09-15T15:14:55.210Z,20.92
2022-09-15T15:17:27.758Z,18.38
2022-09-15T15:20:13.107Z,15.82
2022-09-15T15:22:42.075Z,18.98
2022-09-15T15:25:29.462Z,19.35
2022-09-15T15:27:57.763Z,23.33
2022-09-15T15:30:26.911Z,29.08
2022-09-15T15:32:55.060Z,28.50
2022-09-15T15:35:22.877Z,30.80
2022-09-15T15:37:59.497Z,39.45
2022-09-15T15:40:27.399Z,88.93
2022-09-15T15:43:13.501Z,95.95
2022-09-15T15:45:51.742Z,70.60
2022-09-15T15:48:19.172Z,40.13
2022-09-15T15:50:46.470Z,39.50
2022-09-15T15:53:13.807Z,43.03
2022-09-15T15:55:42.370Z,41.90
2022-09-15T15:58:11.180Z,54.22
2022-09-15T16:00:48.928Z,68.30
2022-09-15T16:03:17.501Z,81.25
2022-09-15T16:05:45.646Z,90.18
2022-09-15T16:08:30.071Z,88.00
2022-09-15T16:10:58.338Z,98.22
2022-09-15T16:13:27.089Z,90.45
2022-09-15T16:15:56.974Z,84.13
2022-09-15T16:18:25.077Z,93.00
2022-09-15T16:20:52.798Z,98.20
2022-09-15T16:23:21.424Z,90.70
2022-09-15T16:25:48.978Z,94.00
2022-09-15T16:28:17.024Z,85.70
2022-09-15T16:30:44.475Z,91.82
2022-09-15T16:33:15.807Z,83.20
2022-09-15T16:35:51.468Z,87.75
2022-09-15T16:40:51.332Z,65.97
2022-09-15T16:43:23.695Z,70.65
2022-09-15T16:45:51.447Z,67.60
2022-09-15T16:48:19.183Z,66.70
2022-09-15T16:51:20.969Z,63.63
2022-09-15T16:53:34.221Z,69.97
2022-09-15T16:56:01.564Z,66.45
2022-09-15T16:58:28.833Z,60.15
2022-09-15T17:00:56.832Z,52.88
2022-09-15T17:03:24.891Z,49.67
2022-09-15T17:05:52.853Z,62.42
2022-09-15T17:08:21.718Z,75.43
2022-09-15T17:10:49.806Z,73.45
2022-09-15T17:13:23.927Z,81.22
2022-09-15T17:15:56.773Z,82.10
2022-09-15T17:18:24.108Z,65.20
2022-09-15T17:20:51.176Z,61.85
2022-09-15T17:23:26.032Z,51.60
2022-09-15T17:25:58.601Z,38.63
2022-09-15T17:28:27.363Z,32.17
2022-09-15T17:30:59.040Z,36.47
2022-09-15T17:33:26.796Z,27.50
2022-09-15T17:35:53.976Z,20.95
2022-09-15T17:38:22.086Z,21.48
2022-09-15T17:40:50.036Z,13.10
2022-09-15T17:43:21.581Z,12.48
2022-09-15T17:45:49.306Z,12.32
2022-09-15T17:48:17.030Z,9.82
2022-09-15T17:50:45.592Z,10.95
2022-09-15T17:53:13.813Z,7.15
2022-09-15T17:55:41.651Z,11.77
2022-09-15T17:58:09.221Z,28.42
2022-09-15T18:00:38.006Z,16.63
2022-09-15T18:03:10.898Z,7.63
2022-09-15T18:05:38.601Z,8.10
2022-09-15T18:08:06.718Z,5.35
2022-09-15T18:10:35.136Z,11.32
2022-09-15T18:13:03.177Z,6.53
2022-09-15T18:15:32.131Z,7.18
2022-09-15T18:18:03.051Z,10.57
2022-09-15T18:20:31.113Z,11.07
2022-09-15T18:22:59.132Z,18.15
2022-09-15T18:25:31.170Z,30.65
2022-09-15T18:27:58.867Z,36.65
2022-09-15T18:30:27.634Z,33.65
2022-09-15T18:32:55.095Z,39.92
2022-09-15T18:35:22.593Z,38.05
2022-09-15T18:37:53.977Z,43.05
2022-09-15T18:40:21.820Z,50.00
2022-09-15T18:42:49.116Z,56.38
2022-09-15T18:45:17.271Z,60.20
2022-09-15T18:47:49.219Z,56.55
2022-09-15T18:50:17.632Z,49.38
2022-09-15T18:52:45.131Z,36.80
2022-09-15T18:55:14.949Z,47.67
2022-09-15T18:57:42.296Z,31.25
2022-09-15T19:00:12.178Z,23.33
2022-09-15T19:02:39.869Z,20.48
2022-09-15T19:05:07.680Z,23.08
2022-09-15T19:07:34.839Z,25.15
2022-09-15T19:10:02.306Z,41.22
2022-09-15T19:12:29.527Z,20.13
2022-09-15T19:14:56.598Z,14.88
2022-09-15T19:17:24.371Z,10.27
2022-09-15T19:19:51.597Z,8.57
2022-09-15T19:22:18.767Z,9.35
2022-09-15T19:24:46.091Z,8.10
2022-09-15T19:27:13.314Z,7.15
2022-09-15T19:29:40.822Z,9.23
2022-09-15T19:32:11.221Z,10.98
2022-09-15T19:34:39.037Z,16.52
2022-09-15T19:37:10.784Z,9.75
2022-09-15T19:39:41.341Z,9.35
2022-09-15T19:42:09.457Z,6.07
2022-09-15T19:44:36.761Z,9.60
2022-09-15T19:47:04.473Z,10.00
2022-09-15T19:49:31.657Z,15.52
2022-09-15T19:51:58.802Z,12.10
2022-09-15T19:54:27.231Z,13.18
2022-09-15T19:56:54.478Z,18.63
2022-09-15T19:59:21.981Z,16.60
2022-09-15T20:01:49.369Z,13.93
2022-09-15T20:07:01.279Z,12.55
2022-09-15T20:09:28.565Z,16.08
2022-09-15T20:11:55.698Z,18.13
2022-09-15T20:14:22.983Z,16.77
2022-09-15T20:16:50.241Z,19.58
2022-09-15T20:19:17.309Z,19.58
2022-09-15T20:21:50.331Z,17.00
2022-09-15T20:24:19.746Z,18.15
2022-09-15T20:26:47.576Z,15.85
2022-09-15T20:29:14.661Z,16.83
2022-09-15T20:31:42.129Z,17.83
2022-09-15T20:34:09.539Z,16.40
2022-09-15T20:36:39.053Z,24.05
2022-09-15T20:39:08.996Z,18.45
2022-09-15T20:41:37.165Z,21.08
2022-09-15T20:44:05.456Z,23.30
2022-09-15T20:46:32.556Z,15.07
2022-09-15T20:48:59.815Z,18.98
2022-09-15T20:51:29.822Z,16.13
2022-09-15T20:53:57.587Z,18.15
2022-09-15T20:56:26.525Z,18.58
2022-09-15T20:58:54.668Z,15.63
2022-09-15T21:01:29.617Z,18.27
2022-09-15T21:03:57.145Z,21.60
2022-09-15T21:06:25.790Z,19.95
2022-09-15T21:08:53.589Z,28.23
2022-09-15T21:11:21.561Z,21.10
2022-09-15T21:13:48.615Z,20.67
2022-09-15T21:16:17.421Z,20.92
2022-09-15T21:18:45.537Z,20.45
2022-09-15T21:21:17.311Z,22.08
2022-09-15T21:23:44.477Z,23.20
2022-09-15T21:26:13.099Z,21.90
2022-09-15T21:28:40.333Z,28.08
2022-09-15T21:31:08.697Z,20.48
2022-09-15T21:33:36.844Z,31.55
2022-09-15T21:36:07.027Z,19.45
2022-09-15T21:38:34.686Z,17.35
2022-09-15T21:41:02.432Z,24.05
2022-09-15T21:43:31.157Z,17.08
2022-09-15T21:45:58.705Z,24.42
2022-09-15T21:48:27.394Z,21.50
2022-09-15T21:50:54.587Z,16.98
2022-09-15T21:53:21.934Z,16.63
2022-09-15T21:55:52.572Z,19.48
2022-09-15T21:58:20.612Z,13.15
2022-09-15T22:00:48.496Z,13.45
2022-09-15T22:03:16.387Z,13.43
2022-09-15T22:05:45.122Z,12.40
2022-09-15T22:08:13.187Z,14.27
2022-09-15T22:10:41.247Z,12.48
2022-09-15T22:13:09.274Z,12.13
2022-09-15T22:15:36.342Z,11.10
2022-09-15T22:18:04.116Z,11.93
2022-09-15T22:20:31.208Z,13.80
2022-09-15T22:23:01.573Z,14.15
2022-09-15T22:25:29.273Z,10.63
2022-09-15T22:27:56.337Z,12.18
2022-09-15T22:30:23.477Z,14.57
2022-09-15T22:32:50.752Z,14.80
2022-09-15T22:35:18.119Z,17.45
2022-09-15T22:37:45.489Z,15.70
2022-09-15T22:40:12.852Z,15.98
2022-09-15T22:42:39.932Z,18.17
2022-09-15T22:45:07.679Z,19.08
2022-09-15T22:47:34.952Z,16.00
2022-09-15T22:50:02.052Z,14.43
2022-09-15T22:55:31.294Z,14.10
2022-09-15T22:57:58.886Z,21.35
2022-09-15T23:00:26.388Z,23.27
2022-09-15T23:02:53.467Z,16.65
2022-09-15T23:05:20.733Z,20.20
2022-09-15T23:07:47.785Z,19.33
2022-09-15T23:10:15.149Z,16.23
2022-09-15T23:12:43.850Z,18.77
2022-09-15T23:15:11.904Z,12.75
2022-09-15T23:17:39.265Z,17.33
2022-09-15T23:20:06.645Z,17.25
2022-09-15T23:22:36.703Z,11.13
2022-09-15T23:25:04.194Z,15.00
2022-09-15T23:27:31.518Z,12.75
2022-09-15T23:29:58.528Z,21.90
2022-09-15T23:32:25.573Z,13.20
2022-09-15T23:34:53.602Z,19.15
2022-09-15T23:37:20.883Z,25.88
2022-09-15T23:39:47.973Z,14.27
2022-09-15T23:42:18.747Z,16.88
2022-09-15T23:44:46.053Z,17.42
2022-09-15T23:47:13.109Z,18.52
2022-09-15T23:49:40.486Z,15.88
2022-09-15T23:52:07.480Z,11.20
2022-09-15T23:54:34.521Z,13.98
2022-09-15T23:57:01.679Z,12.93
2022-09-15T23:59:28.800Z,11.38
